Airfield :
LOGIN :

Register | Disclaimer

   EN    FR    IT 

 










Legend :    VFR   Marginal VFR   IFR   Intensive IFR   Very Intensive IFR
Visi :
Ceiling :
>= 8 km
>= 3000ft
5 to 8 km
1000 to 3000 ft
1500m to 5 km
500 to 1000 ft
800 to 1500m
200 to 500 ft
< 800m
< 200 ft
Symbols :   Thunderstorms  Fog  Heavy snow  Heavy precipitations  Wind > 20 kt
SIGMETs :     Misc.  Thunderstorms  Icing  Turbulence  Mountain Waves  Volcanic Ashes







- Airport Elevation : 433 ft
- Download approach charts


LFOC - Chateaudun

CURRENT METAR :
  • 210100Z AUTO 19011KT 9999 FEW037 SCT045 OVC064 14/12 Q1012

EXPIRED METARs :
  • 210030Z AUTO 19009KT CAVOK 13/11 Q1013
  • 210000Z AUTO 18010KT CAVOK 13/11 Q1013
  • 202330Z AUTO 18010KT 9999 BKN044 OVC050 12/11 Q1013
  • 202300Z AUTO 18008KT 9999 FEW044 11/10 Q1013
  • 202230Z AUTO 18005KT CAVOK 10/09 Q1014

TAF TAF LFOC
Valid from the 20 at 09:00 until the 21 at 09:00 UTC


200800Z 2009/2109 23010KT 9999 SCT010
BECMG 2009/2011 BKN025
PROB30
TEMPO 2011/2015 22015G25KT
TEMPO 2101/2104 5000 -RA
BECMG 2104/2106 22015G25KT 3000 RA BKN012 BKN030
No reported NOTAMs for that airfield.
1 SIGMET reported for the Paris FIR (LFFF) :
 
Severe turbulence
LFFF SIGMET 5 VALID 202300/210300 LFPW
LFFF PARIS FIR/UIR SEV TURB FCST WI N4845 W00015 - N5000 W00015 - N5100 E00145 - N4945 E00145 SFC/FL060 MOV E 25KT NC=



MET'MAP, your aeronautical weather chart ! - Copyright ORBIFLY December 2007 - Disclaimer

ORBIFLY MET'MAP TEAM :

Programming & Development : Alexandra Zaïnal
Concept & Development : Baudouin d'Aumeries
Co-Development & Prog : Marc-Olivier Méhu
Technical & hardware support : Manuel Goepfert

Contact : metmap@orbifly.com




SOURCES & CREDITS :

   NOAA